createdAt,value
2022-09-12T00:02:22.843Z,99209.69
2022-09-12T00:05:09.023Z,99203.69
2022-09-12T00:07:55.293Z,99189.88
2022-09-12T00:10:43.177Z,99201.94
2022-09-12T00:13:29.284Z,99195.94
2022-09-12T00:16:19.105Z,99201.09
2022-09-12T00:19:06.473Z,99201.97
2022-09-12T00:21:52.653Z,99187.31
2022-09-12T00:24:40.789Z,99176.97
2022-09-12T00:27:27.967Z,99175.25
2022-09-12T00:30:14.546Z,99202.81
2022-09-12T00:33:00.744Z,99203.72
2022-09-12T00:35:50.437Z,99178.69
2022-09-12T00:38:38.645Z,99203.72
2022-09-12T00:41:27.851Z,99201.13
2022-09-12T00:44:23.966Z,99202.88
2022-09-12T00:47:27.135Z,99186.47
2022-09-12T00:50:16.037Z,99161.47
2022-09-12T00:53:08.107Z,99189.94
2022-09-12T00:55:56.178Z,99187.34
2022-09-12T00:58:55.868Z,99176.13
2022-09-12T01:01:44.757Z,99170.97
2022-09-12T01:04:32.256Z,99164.94
2022-09-12T01:07:19.951Z,99164.91
2022-09-12T01:10:07.684Z,99153.69
2022-09-12T01:12:53.952Z,99152.84
2022-09-12T01:15:40.740Z,99165.78
2022-09-12T01:18:44.023Z,99167.47
2022-09-12T01:21:59.077Z,99167.50
2022-09-12T01:25:20.589Z,99161.47
2022-09-12T01:28:41.965Z,99157.16
2022-09-12T01:31:57.752Z,99154.53
2022-09-12T01:34:57.217Z,99140.72
2022-09-12T01:37:54.169Z,99164.06
2022-09-12T01:40:51.137Z,99156.28
2022-09-12T01:43:51.888Z,99151.06
2022-09-12T01:46:48.113Z,99164.03
2022-09-12T01:50:02.996Z,99154.53
2022-09-12T01:52:59.726Z,99130.38
2022-09-12T01:55:51.378Z,99133.84
2022-09-12T01:58:56.298Z,99146.75
2022-09-12T02:01:49.863Z,99128.63
2022-09-12T02:04:43.421Z,99140.72
2022-09-12T02:07:43.241Z,99140.72
2022-09-12T02:10:40.873Z,99142.44
2022-09-12T02:13:32.731Z,99137.28
2022-09-12T02:16:25.708Z,99142.44
2022-09-12T02:19:29.562Z,99139.88
2022-09-12T02:22:19.850Z,99141.56
2022-09-12T02:25:11.486Z,99132.09
2022-09-12T02:28:13.847Z,99110.53
2022-09-12T02:31:03.889Z,99095.00
2022-09-12T02:34:05.525Z,99128.66
2022-09-12T02:37:15.154Z,99104.47
2022-09-12T02:40:02.202Z,99128.63
2022-09-12T02:42:49.442Z,99131.25
2022-09-12T02:45:36.826Z,99103.63
2022-09-12T02:48:31.800Z,99102.78
2022-09-12T02:51:21.618Z,99102.78
2022-09-12T02:54:10.331Z,99121.75
2022-09-12T02:56:56.640Z,99098.47
2022-09-12T02:59:42.966Z,99119.16
2022-09-12T03:02:35.776Z,99104.50
2022-09-12T03:05:34.919Z,99122.63
2022-09-12T03:08:37.277Z,99111.38
2022-09-12T03:11:48.463Z,99118.31
2022-09-12T03:15:01.598Z,99119.16
2022-09-12T03:17:50.896Z,99118.28
2022-09-12T03:20:47.574Z,99126.94
2022-09-12T03:23:47.675Z,99114.84
2022-09-12T03:26:47.300Z,99088.97
2022-09-12T03:29:33.833Z,99120.00
2022-09-12T03:32:20.153Z,99121.75
2022-09-12T03:35:06.770Z,99121.75
2022-09-12T03:37:53.364Z,99124.31
2022-09-12T03:40:40.408Z,99116.56
2022-09-12T03:43:26.784Z,99077.75
2022-09-12T03:46:13.772Z,99126.06
2022-09-12T03:49:00.019Z,99122.63
2022-09-12T03:51:46.063Z,99103.63
2022-09-12T03:54:32.306Z,99119.16
2022-09-12T03:57:18.763Z,99110.53
2022-09-12T04:00:08.030Z,99101.03
2022-09-12T04:02:58.711Z,99107.06
2022-09-12T04:05:46.460Z,99120.00
2022-09-12T04:08:33.075Z,99077.78
2022-09-12T04:11:20.789Z,99119.16
2022-09-12T04:14:07.004Z,99121.72
2022-09-12T04:16:53.635Z,99114.84
2022-09-12T04:19:39.983Z,99075.16
2022-09-12T04:22:26.945Z,99119.16
2022-09-12T04:25:13.845Z,99124.31
2022-09-12T04:28:00.012Z,99117.44
2022-09-12T04:30:46.592Z,99120.88
2022-09-12T04:33:34.443Z,99114.81
2022-09-12T04:36:22.815Z,99119.16
2022-09-12T04:39:11.391Z,99115.72
2022-09-12T04:41:57.798Z,99114.00
2022-09-12T04:44:44.275Z,99107.94
2022-09-12T04:47:30.431Z,99089.84
2022-09-12T04:50:16.889Z,99089.81
2022-09-12T04:53:03.204Z,99118.28
2022-09-12T04:55:49.373Z,99096.72
2022-09-12T04:58:36.311Z,99116.53
2022-09-12T05:01:23.146Z,99114.81
2022-09-12T05:04:13.411Z,99099.28
2022-09-12T05:06:59.922Z,99104.47
2022-09-12T05:09:46.478Z,99103.63
2022-09-12T05:12:32.812Z,99080.31
2022-09-12T05:15:19.166Z,99098.41
2022-09-12T05:18:06.228Z,99080.28
2022-09-12T05:20:53.737Z,99109.63
2022-09-12T05:23:40.402Z,99110.47
2022-09-12T05:26:26.778Z,99112.19
2022-09-12T05:29:13.376Z,99092.34
2022-09-12T05:31:59.479Z,99102.69
2022-09-12T05:34:45.716Z,99104.41
2022-09-12T05:37:31.828Z,99100.16
2022-09-12T05:40:19.303Z,99098.41
2022-09-12T05:43:05.691Z,99075.13
2022-09-12T05:45:52.060Z,99119.16
2022-09-12T05:48:39.961Z,99121.75
2022-09-12T05:51:28.815Z,99128.66
2022-09-12T05:54:18.706Z,99096.72
2022-09-12T05:57:05.322Z,99076.03
2022-09-12T05:59:52.361Z,99057.94
2022-09-12T06:02:38.863Z,99125.19
2022-09-12T06:05:25.153Z,99063.09
2022-09-12T06:08:11.884Z,99101.00
2022-09-12T06:11:02.756Z,99111.34
2022-09-12T06:13:50.900Z,99115.59
2022-09-12T06:16:37.918Z,99100.94
2022-09-12T06:19:25.231Z,99090.63
2022-09-12T06:22:11.844Z,99094.06
2022-09-12T06:24:58.230Z,99070.78
2022-09-12T06:27:46.007Z,99095.75
2022-09-12T06:30:32.526Z,99112.97
2022-09-12T06:33:19.052Z,99126.72
2022-09-12T06:36:11.527Z,99116.25
2022-09-12T06:39:01.386Z,99092.09
2022-09-12T06:41:49.573Z,99118.75
2022-09-12T06:44:36.061Z,99071.28
2022-09-12T06:47:22.397Z,99076.41
2022-09-12T06:50:09.073Z,99102.22
2022-09-12T06:52:55.539Z,99078.84
2022-09-12T06:55:42.050Z,99098.56
2022-09-12T06:58:30.186Z,99117.47
2022-09-12T07:01:19.133Z,99114.72
2022-09-12T07:04:05.905Z,99079.19
2022-09-12T07:06:52.232Z,99080.00
2022-09-12T07:09:38.495Z,99099.66
2022-09-12T07:12:25.025Z,99078.91
2022-09-12T07:15:11.451Z,99085.59
2022-09-12T07:17:57.888Z,99100.13
2022-09-12T07:20:44.229Z,99091.31
2022-09-12T07:23:31.142Z,99085.16
2022-09-12T07:26:17.951Z,99081.41
2022-09-12T07:29:25.556Z,99080.31
2022-09-12T07:32:12.069Z,99074.78
2022-09-12T07:34:58.509Z,99101.94
2022-09-12T07:37:44.666Z,99089.63
2022-09-12T07:40:31.153Z,99100.53
2022-09-12T07:43:17.321Z,99061.69
2022-09-12T07:46:03.638Z,99091.47
2022-09-12T07:48:51.581Z,99108.28
2022-09-12T07:51:37.952Z,99097.59
2022-09-12T07:54:24.196Z,99102.63
2022-09-12T07:57:10.475Z,99072.31
2022-09-12T07:59:56.563Z,99084.88
2022-09-12T08:02:43.118Z,99089.66
2022-09-12T08:05:29.940Z,99094.16
2022-09-12T08:08:16.370Z,99097.41
2022-09-12T08:11:05.980Z,99094.56
2022-09-12T08:13:55.664Z,99061.69
2022-09-12T08:16:42.627Z,99093.09
2022-09-12T08:19:29.113Z,99023.44
2022-09-12T08:22:15.377Z,99090.88
2022-09-12T08:25:01.522Z,99075.09
2022-09-12T08:27:48.311Z,99090.16
2022-09-12T08:30:34.785Z,99098.13
2022-09-12T08:33:22.109Z,99089.34
2022-09-12T08:36:15.674Z,99055.81
2022-09-12T08:39:05.939Z,99093.69
2022-09-12T08:42:03.115Z,99085.91
2022-09-12T08:44:56.306Z,99086.44
2022-09-12T08:47:46.298Z,99061.31
2022-09-12T08:50:32.862Z,99086.66
2022-09-12T08:53:24.980Z,99057.84
2022-09-12T08:56:12.163Z,99060.78
2022-09-12T08:58:59.332Z,99049.50
2022-09-12T09:01:45.955Z,99056.97
2022-09-12T09:04:32.258Z,99077.75
2022-09-12T09:07:39.410Z,99032.69
2022-09-12T09:10:43.780Z,99063.91
2022-09-12T09:14:19.034Z,99057.72
2022-09-12T09:17:11.853Z,99046.88
2022-09-12T09:20:11.933Z,99082.59
2022-09-12T09:23:22.072Z,99082.00
2022-09-12T09:26:39.205Z,99079.00
2022-09-12T09:29:47.838Z,99077.19
2022-09-12T09:32:38.283Z,98989.44
2022-09-12T09:36:20.266Z,99075.66
2022-09-12T09:39:11.252Z,99071.47
2022-09-12T09:42:09.962Z,99074.44
2022-09-12T09:45:00.225Z,99039.03
2022-09-12T09:47:57.681Z,99060.88
2022-09-12T09:50:45.518Z,99050.38
2022-09-12T09:53:51.779Z,99064.28
2022-09-12T09:56:42.354Z,99069.63
2022-09-12T09:59:31.634Z,99047.41
2022-09-12T10:02:24.238Z,99067.53
2022-09-12T10:05:17.164Z,99044.31
2022-09-12T10:08:06.638Z,99067.72
2022-09-12T10:11:18.586Z,99043.34
2022-09-12T10:14:05.173Z,99037.94
2022-09-12T10:16:53.185Z,99049.06
2022-09-12T10:19:40.352Z,99030.88
2022-09-12T10:22:29.191Z,99014.09
2022-09-12T10:25:19.123Z,99005.63
2022-09-12T10:28:06.642Z,99039.25
2022-09-12T10:30:54.763Z,99041.13
2022-09-12T10:33:46.967Z,98996.28
2022-09-12T10:36:38.530Z,99045.66
2022-09-12T10:39:25.414Z,99029.56
2022-09-12T10:42:14.886Z,99031.13
2022-09-12T10:45:01.034Z,99017.78
2022-09-12T10:47:47.533Z,99008.16
2022-09-12T10:50:41.501Z,99027.28
2022-09-12T10:53:48.343Z,99028.34
2022-09-12T10:56:50.211Z,99034.75
2022-09-12T10:59:55.666Z,98998.22
2022-09-12T11:02:57.386Z,98998.31
2022-09-12T11:05:56.387Z,99006.03
2022-09-12T11:08:56.770Z,98980.66
2022-09-12T11:11:54.222Z,98977.72
2022-09-12T11:14:55.665Z,98993.94
2022-09-12T11:17:42.181Z,98989.75
2022-09-12T11:20:50.510Z,98992.00
2022-09-12T11:23:55.977Z,98989.41
2022-09-12T11:26:54.484Z,98977.31
2022-09-12T11:29:45.629Z,98988.56
2022-09-12T11:32:52.990Z,98989.94
2022-09-12T11:35:54.570Z,98981.28
2022-09-12T11:38:52.150Z,98980.59
2022-09-12T11:41:43.576Z,98960.78
2022-09-12T11:44:40.467Z,98951.25
2022-09-12T11:47:29.645Z,98943.31
2022-09-12T11:50:25.978Z,98956.25
2022-09-12T11:53:20.293Z,98965.31
2022-09-12T11:56:25.226Z,98940.19
2022-09-12T11:59:40.307Z,98959.63
2022-09-12T12:02:29.480Z,98954.41
2022-09-12T12:05:22.252Z,98959.22
2022-09-12T12:08:10.811Z,98960.59
2022-09-12T12:10:59.767Z,98959.59
2022-09-12T12:13:51.839Z,98952.50
2022-09-12T12:16:40.157Z,98927.84
2022-09-12T12:19:33.693Z,98937.94
2022-09-12T12:22:25.342Z,98937.63
2022-09-12T12:25:11.734Z,98937.28
2022-09-12T12:28:05.390Z,98925.16
2022-09-12T12:30:54.865Z,98922.66
2022-09-12T12:33:44.403Z,98924.94
2022-09-12T12:36:40.248Z,98910.94
2022-09-12T12:39:32.417Z,98917.59
2022-09-12T12:42:31.017Z,98923.91
2022-09-12T12:45:17.890Z,98915.41
2022-09-12T12:48:18.053Z,98885.41
2022-09-12T12:51:26.215Z,98898.84
2022-09-12T12:54:33.989Z,98895.44
2022-09-12T12:57:27.010Z,98900.63
2022-09-12T13:00:28.015Z,98898.97
2022-09-12T13:03:31.786Z,98899.75
2022-09-12T13:06:39.923Z,98895.56
2022-09-12T13:09:39.419Z,98876.13
2022-09-12T13:12:30.858Z,98885.81
2022-09-12T13:15:29.961Z,98887.03
2022-09-12T13:18:43.219Z,98870.50
2022-09-12T13:21:29.862Z,98859.91
2022-09-12T13:24:18.469Z,98875.91
2022-09-12T13:27:17.765Z,98860.47
2022-09-12T13:30:15.241Z,98879.00
2022-09-12T13:33:30.926Z,98850.09
2022-09-12T13:36:48.073Z,98864.25
2022-09-12T13:40:03.058Z,98825.59
2022-09-12T13:42:53.217Z,98851.69
2022-09-12T13:45:39.700Z,98821.66
2022-09-12T13:48:26.161Z,98834.22
2022-09-12T13:51:32.579Z,98845.94
2022-09-12T13:54:24.326Z,98822.75
2022-09-12T13:57:30.665Z,98845.19
2022-09-12T14:00:19.515Z,98839.03
2022-09-12T14:03:44.227Z,98823.91
2022-09-12T14:06:42.115Z,98832.13
2022-09-12T14:09:34.475Z,98823.06
2022-09-12T14:12:25.702Z,98820.03
2022-09-12T14:15:24.458Z,98822.75
2022-09-12T14:18:23.347Z,98806.69
2022-09-12T14:21:22.824Z,98810.97
2022-09-12T14:24:13.883Z,98788.88
2022-09-12T14:27:01.059Z,98812.28
2022-09-12T14:29:47.693Z,98797.19
2022-09-12T14:32:34.522Z,98812.09
2022-09-12T14:35:21.408Z,98794.34
2022-09-12T14:38:17.175Z,98815.59
2022-09-12T14:41:08.248Z,98806.81
2022-09-12T14:44:00.378Z,98802.00
2022-09-12T14:46:48.484Z,98788.28
2022-09-12T14:49:37.170Z,98809.81
2022-09-12T14:52:27.649Z,98789.97
2022-09-12T14:55:21.750Z,98797.56
2022-09-12T14:58:18.474Z,98786.78
2022-09-12T15:01:08.170Z,98786.59
2022-09-12T15:03:55.984Z,98782.06
2022-09-12T15:06:42.833Z,98757.13
2022-09-12T15:09:28.994Z,98756.00
2022-09-12T15:12:15.511Z,98753.34
2022-09-12T15:15:14.227Z,98766.09
2022-09-12T15:18:04.578Z,98767.72
2022-09-12T15:21:03.411Z,98775.25
2022-09-12T15:23:51.361Z,98743.97
2022-09-12T15:26:37.658Z,98770.53
2022-09-12T15:29:23.853Z,98763.34
2022-09-12T15:32:22.488Z,98757.63
2022-09-12T15:35:17.675Z,98760.44
2022-09-12T15:38:04.192Z,98748.53
2022-09-12T15:40:54.562Z,98752.78
2022-09-12T15:43:41.085Z,98727.25
2022-09-12T15:46:27.546Z,98721.56
2022-09-12T15:49:13.858Z,98737.38
2022-09-12T15:52:00.442Z,98726.41
2022-09-12T15:54:47.035Z,98729.91
2022-09-12T15:57:33.245Z,98712.16
2022-09-12T16:00:20.021Z,98734.63
2022-09-12T16:03:07.016Z,98736.31
2022-09-12T16:05:58.955Z,98735.16
2022-09-12T16:08:46.112Z,98724.59
2022-09-12T16:11:32.972Z,98733.63
2022-09-12T16:14:19.795Z,98726.09
2022-09-12T16:17:06.150Z,98719.47
2022-09-12T16:19:52.221Z,98722.16
2022-09-12T16:22:39.331Z,98713.41
2022-09-12T16:25:25.559Z,98717.78
2022-09-12T16:28:12.096Z,98718.66
2022-09-12T16:31:00.535Z,98720.41
2022-09-12T16:33:46.717Z,98712.56
2022-09-12T16:36:33.025Z,98696.28
2022-09-12T16:39:19.361Z,98697.22
2022-09-12T16:42:05.856Z,98694.75
2022-09-12T16:44:52.017Z,98691.19
2022-09-12T16:47:38.954Z,98694.59
2022-09-12T16:50:25.315Z,98686.50
2022-09-12T16:53:11.514Z,98698.16
2022-09-12T16:55:57.840Z,98707.06
2022-09-12T16:58:44.710Z,98684.03
2022-09-12T17:01:31.540Z,98704.31
2022-09-12T17:04:21.674Z,98697.94
2022-09-12T17:07:10.045Z,98683.78
2022-09-12T17:09:56.898Z,98697.09
2022-09-12T17:12:43.277Z,98714.06
2022-09-12T17:15:29.795Z,98698.13
2022-09-12T17:18:15.888Z,98705.00
2022-09-12T17:21:02.039Z,98708.50
2022-09-12T17:23:48.381Z,98675.50
2022-09-12T17:26:35.185Z,98700.38
2022-09-12T17:29:21.672Z,98690.59
2022-09-12T17:32:08.274Z,98687.41
2022-09-12T17:34:54.517Z,98705.63
2022-09-12T17:37:41.524Z,98681.28
2022-09-12T17:40:48.667Z,98696.69
2022-09-12T17:43:36.546Z,98690.66
2022-09-12T17:46:31.681Z,98706.88
2022-09-12T17:49:21.978Z,98685.16
2022-09-12T17:52:08.121Z,98676.22
2022-09-12T17:54:54.478Z,98674.78
2022-09-12T17:57:41.881Z,98705.28
2022-09-12T18:00:48.626Z,98717.88
2022-09-12T18:03:44.498Z,98690.38
2022-09-12T18:06:32.402Z,98705.19
2022-09-12T18:09:22.306Z,98733.16
2022-09-12T18:12:09.580Z,98697.09
2022-09-12T18:14:56.261Z,98705.06
2022-09-12T18:17:43.414Z,98721.41
2022-09-12T18:20:29.646Z,98727.09
2022-09-12T18:23:16.024Z,98706.97
2022-09-12T18:26:05.919Z,98706.41
2022-09-12T18:28:52.530Z,98715.00
2022-09-12T18:31:39.165Z,98730.75
2022-09-12T18:34:25.464Z,98708.81
2022-09-12T18:37:11.738Z,98717.66
2022-09-12T18:39:58.270Z,98716.13
2022-09-12T18:42:44.496Z,98647.16
2022-09-12T18:45:31.540Z,98708.19
2022-09-12T18:48:17.734Z,98723.69
2022-09-12T18:51:15.814Z,98741.91
2022-09-12T18:54:06.247Z,98735.94
2022-09-12T18:56:52.624Z,98717.59
2022-09-12T18:59:38.940Z,98719.31
2022-09-12T19:02:28.032Z,98733.38
2022-09-12T19:05:14.193Z,98725.84
2022-09-12T19:08:00.920Z,98719.94
2022-09-12T19:10:54.597Z,98710.03
2022-09-12T19:13:42.807Z,98757.59
2022-09-12T19:16:29.292Z,98720.09
2022-09-12T19:19:17.168Z,98722.97
2022-09-12T19:22:04.339Z,98734.25
2022-09-12T19:24:50.797Z,98734.50
2022-09-12T19:27:37.027Z,98736.44
2022-09-12T19:30:23.313Z,98728.03
2022-09-12T19:33:13.977Z,98746.88
2022-09-12T19:36:33.658Z,98738.47
2022-09-12T19:39:19.485Z,98748.84
2022-09-12T19:42:06.528Z,98724.28
2022-09-12T19:44:56.480Z,98739.84
2022-09-12T19:47:42.920Z,98754.72
2022-09-12T19:50:31.773Z,98728.34
2022-09-12T19:53:18.894Z,98732.00
2022-09-12T19:56:06.058Z,98712.22
2022-09-12T19:58:56.467Z,98728.75
2022-09-12T20:01:43.160Z,98733.75
2022-09-12T20:04:31.747Z,98721.94
2022-09-12T20:07:17.920Z,98714.34
2022-09-12T20:10:04.489Z,98715.34
2022-09-12T20:12:51.063Z,98707.81
2022-09-12T20:15:37.210Z,98719.06
2022-09-12T20:18:23.446Z,98681.47
2022-09-12T20:21:17.298Z,98735.44
2022-09-12T20:24:11.107Z,98679.78
2022-09-12T20:26:57.583Z,98709.94
2022-09-12T20:29:44.246Z,98709.19
2022-09-12T20:32:30.770Z,98695.63
2022-09-12T20:35:17.551Z,98697.28
2022-09-12T20:38:04.092Z,98693.72
2022-09-12T20:40:50.069Z,98656.94
2022-09-12T20:43:38.507Z,98658.75
2022-09-12T20:46:26.426Z,98723.38
2022-09-12T20:49:12.708Z,98692.59
2022-09-12T20:51:58.820Z,98719.31
2022-09-12T20:54:45.328Z,98725.59
2022-09-12T20:57:31.409Z,98712.75
2022-09-12T21:00:18.046Z,98676.81
2022-09-12T21:03:05.091Z,98717.97
2022-09-12T21:05:52.002Z,98722.31
2022-09-12T21:08:38.597Z,98691.53
2022-09-12T21:11:25.210Z,98710.41
2022-09-12T21:14:11.784Z,98700.31
2022-09-12T21:16:57.954Z,98692.63
2022-09-12T21:19:44.461Z,98690.09
2022-09-12T21:22:30.896Z,98690.19
2022-09-12T21:25:19.514Z,98714.34
2022-09-12T21:28:08.429Z,98711.00
2022-09-12T21:30:55.924Z,98691.19
2022-09-12T21:33:44.589Z,98706.75
2022-09-12T21:36:31.030Z,98704.28
2022-09-12T21:39:20.275Z,98702.72
2022-09-12T21:42:06.954Z,98710.56
2022-09-12T21:44:53.167Z,98708.88
2022-09-12T21:47:39.377Z,98675.47
2022-09-12T21:50:25.776Z,98674.56
2022-09-12T21:53:11.995Z,98689.13
2022-09-12T21:56:03.725Z,98708.06
2022-09-12T21:58:50.085Z,98686.78
2022-09-12T22:01:36.840Z,98664.66
2022-09-12T22:04:23.272Z,98703.28
2022-09-12T22:07:10.076Z,98663.78
2022-09-12T22:09:56.535Z,98662.19
2022-09-12T22:12:46.183Z,98695.56
2022-09-12T22:15:41.212Z,98665.56
2022-09-12T22:18:27.602Z,98668.97
2022-09-12T22:21:18.294Z,98674.81
2022-09-12T22:24:23.470Z,98600.28
2022-09-12T22:27:09.948Z,98644.09
2022-09-12T22:29:56.331Z,98639.03
2022-09-12T22:32:42.963Z,98668.25
2022-09-12T22:35:29.150Z,98644.34
2022-09-12T22:38:15.341Z,98614.31
2022-09-12T22:41:06.336Z,98656.31
2022-09-12T22:43:53.198Z,98623.06
2022-09-12T22:46:40.048Z,98665.88
2022-09-12T22:49:26.328Z,98630.72
2022-09-12T22:52:12.807Z,98642.63
2022-09-12T22:54:59.041Z,98665.88
2022-09-12T22:57:45.107Z,98636.69
2022-09-12T23:00:31.952Z,98650.44
2022-09-12T23:03:19.590Z,98678.81
2022-09-12T23:06:06.190Z,98686.59
2022-09-12T23:08:52.596Z,98672.94
2022-09-12T23:11:39.064Z,98654.13
2022-09-12T23:14:25.273Z,98672.16
2022-09-12T23:17:11.884Z,98652.41
2022-09-12T23:19:58.091Z,98633.41
2022-09-12T23:22:44.363Z,98648.00
2022-09-12T23:25:30.901Z,98660.78
2022-09-12T23:28:16.997Z,98632.44
2022-09-12T23:31:03.799Z,98640.13
2022-09-12T23:33:53.112Z,98627.41
2022-09-12T23:36:39.290Z,98654.94
2022-09-12T23:39:25.708Z,98648.94
2022-09-12T23:42:12.153Z,98625.75
2022-09-12T23:44:58.446Z,98613.81
2022-09-12T23:47:44.739Z,98603.63
2022-09-12T23:50:31.319Z,98636.88
2022-09-12T23:53:18.265Z,98659.38
2022-09-12T23:56:05.402Z,98662.91
2022-09-12T23:58:51.665Z,98659.47
